Rome, OR

3:30 PM MDT on March 28, 2017 (GMT -0600)
Burns Municipal | | Change Station
Active Advisory: Wind Advisory

Elev 4147 ft 43.59 °N, 118.96 °W | Updated 37 minutes ago

Partly Cloudy
Partly Cloudy
48 °F
Feels Like 48 °F
N
10
Wind Variable Wind from SSW

Today
High -- | Low -- °F
--% Chance of Precip.
Yesterday
High -- | Low -- °F
Precip. -- in
Pressure 30.32 in
Visibility 10.0 miles
Clouds Overcast 4200 ft
Dew Point 31 °F
Humidity 52%
Rainfall 0.00 in
Snow Depth Not available.
7:40 AM 8:13 PM
New Moon, 1% visible
METAR KBNO 282053Z AUTO 20009KT 10SM OVC042 09/M01 A3029 RMK AO2 SLP267 T00891006 56007
Pressure 30.32 in
Visibility 10.0 miles
Clouds Overcast 4200 ft
Dew Point 31 °F
Humidity 52%
Rainfall 0.00 in
Snow Depth Not available.
7:40 AM 8:13 PM
New Moon, 1% visible
METAR KBNO 282053Z AUTO 20009KT 10SM OVC042 09/M01 A3029 RMK AO2 SLP267 T00891006 56007

Get Your Daily Forecast Email!

Thanks for signing up!

Be on the lookout for a verification email in your inbox.

You'll start receiving severe weather alerts in your inbox..

×

10-Day Weather Forecast

Almanac

Astronomy

Mar. 28, 2017 Rise Set
Actual Time
Civil Twilight
Nautical Twilight
Astronomical Twilight
Moon
Length of Visible Light
Length of Day
Tomorrow will be .
, % of the Moon is Illuminated

Today's Extremes

State Highs State Lows

Community

WunderPhotos

Upload Photos

1,962,540 photos uploaded!

WunderBlog® & News

Nearby

Air Quality

  Air Quality AQ Index Pollutant
Not available.

Snow Depth

Station Depth Elevation

Earthquake Activity

City Distance Mag. Time & Date
Minimum magnitude displayed is 2.5.

Earthquake Activity

City Distance Mag. Time & Date
Minimum magnitude displayed is 2.5.

Coastal Water Temperatures

Place Temperature

Stations

Nearby Weather Stations

Station Location Temp. Windchill Dew Point Humidity Wind Precip. Elev Updated Type
                   

Watches & Warnings

Wind Advisory
Issued: 12:49 PM PDT Mar. 28, 2017 – National Weather Service

... Wind Advisory in effect from 10 am MDT /9 am PDT/ to 6 PM MDT
/5 PM PDT/ Thursday...

The National Weather Service in Boise has issued a Wind Advisory,
which is in effect from 10 am MDT /9 am PDT/ to 6 PM MDT /5 PM
PDT/ Thursday.

* Winds... west or northwest 30 mph with gusts to 50 mph.

* Timing... late Thursday morning through Thursday afternoon.

* Impacts... travel hazard for high profile vehicles, or on north-
south roads due to cross winds.

Precautionary/preparedness actions...

A Wind Advisory means that winds of 30 mph are expected. Winds
this strong can make driving difficult... especially for high
profile vehicles. Use extra caution.